Time;durP1;ratioP1;P1;durP2;ratioP2;P2;SDS_P1;SDS_P2;PMS_P1;PMS_P2;Temp;Humidity;BMP_temperature;BMP_pressure;BME280_temperature;BME280_humidity;BME280_pressure;Samples;Min_cycle;Max_cycle;Signal;HPM_P1;HPM_P2
2023/03/15 00:02:49;;;;;;;8.67;1.93;;;3.60;99.90;;;;;;10559086;28;20385;-81
2023/03/15 00:08:12;;;;;;;6.97;2.03;;;3.60;99.90;;;;;;10578826;28;20245;-79
2023/03/15 00:13:33;;;;;;;9.47;2.07;;;3.70;99.90;;;;;;10548625;28;20379;-79
2023/03/15 00:18:55;;;;;;;8.50;2.40;;;3.70;99.90;;;;;;10562818;28;20591;-80
2023/03/15 00:24:16;;;;;;;12.70;2.77;;;3.60;99.90;;;;;;10535411;28;20203;-79
2023/03/15 00:29:37;;;;;;;9.57;2.10;;;3.60;99.90;;;;;;10547511;28;20203;-80
2023/03/15 00:35:00;;;;;;;9.20;2.17;;;3.60;99.90;;;;;;10549293;28;20503;-81
2023/03/15 00:40:22;;;;;;;8.37;2.30;;;3.60;99.90;;;;;;10519947;28;20223;-81
2023/03/15 00:45:44;;;;;;;15.73;2.63;;;3.60;99.90;;;;;;10542785;28;20426;-80
2023/03/15 00:51:08;;;;;;;10.00;2.63;;;3.60;99.90;;;;;;10577253;28;20187;-79
2023/03/15 00:56:30;;;;;;;10.80;3.23;;;3.50;99.90;;;;;;10564177;28;20495;-80
2023/03/15 01:01:51;;;;;;;6.10;2.03;;;3.60;99.90;;;;;;10533191;28;20210;-81
2023/03/15 01:07:15;;;;;;;5.93;1.83;;;3.50;99.90;;;;;;10528040;28;20459;-81
2023/03/15 01:12:37;;;;;;;12.00;2.23;;;3.50;99.90;;;;;;10561112;28;20262;-80
2023/03/15 01:17:58;;;;;;;7.97;2.03;;;3.50;99.90;;;;;;10561091;28;20221;-81
2023/03/15 01:23:20;;;;;;;9.67;2.57;;;3.40;99.90;;;;;;10561236;28;20188;-81
2023/03/15 01:28:41;;;;;;;10.83;2.30;;;3.40;99.90;;;;;;10559642;28;20487;-80
2023/03/15 01:34:02;;;;;;;9.73;2.10;;;3.30;99.90;;;;;;10546459;28;20206;-81
2023/03/15 01:39:25;;;;;;;12.87;2.20;;;3.30;99.90;;;;;;10560759;28;20221;-80
2023/03/15 01:45:00;;;;;;;15.03;2.40;;;3.30;99.90;;;;;;10541620;28;20545;-81
2023/03/15 01:50:24;;;;;;;18.03;2.77;;;3.30;99.90;;;;;;10533110;28;20188;-80
2023/03/15 01:55:45;;;;;;;12.70;2.47;;;3.30;99.90;;;;;;10538705;28;20240;-81
2023/03/15 02:01:09;;;;;;;8.23;2.27;;;3.30;99.90;;;;;;10551465;28;20232;-80
2023/03/15 02:06:34;;;;;;;10.00;2.00;;;3.20;99.90;;;;;;10508830;28;20192;-81
2023/03/15 02:11:56;;;;;;;7.57;2.33;;;3.20;99.90;;;;;;10546056;28;20427;-80
2023/03/15 02:17:24;;;;;;;10.37;2.77;;;3.20;99.90;;;;;;10559029;28;20230;-80
2023/03/15 02:23:01;;;;;;;7.27;1.73;;;3.10;99.90;;;;;;10558687;28;20200;-80
2023/03/15 02:28:22;;;;;;;9.60;2.57;;;3.10;99.90;;;;;;10531636;28;20195;-80
2023/03/15 02:33:49;;;;;;;14.77;2.30;;;3.10;99.90;;;;;;10557175;28;20499;-80
2023/03/15 02:39:19;;;;;;;19.07;2.67;;;3.10;99.90;;;;;;10522441;28;20238;-80
2023/03/15 02:44:44;;;;;;;17.00;3.30;;;3.00;99.90;;;;;;10574516;28;20414;-80
2023/03/15 02:50:07;;;;;;;14.90;2.13;;;3.00;99.90;;;;;;10545179;28;20199;-80
2023/03/15 02:55:31;;;;;;;7.47;2.10;;;2.90;99.90;;;;;;10553734;28;20459;-80
2023/03/15 03:00:53;;;;;;;14.70;2.77;;;2.90;99.90;;;;;;10545248;28;20237;-80
2023/03/15 03:06:15;;;;;;;11.57;2.47;;;3.00;99.90;;;;;;10565128;28;20210;-80
2023/03/15 03:11:38;;;;;;;9.67;2.53;;;3.00;99.90;;;;;;10565298;28;20244;-81
2023/03/15 03:17:00;;;;;;;17.77;2.97;;;2.90;99.90;;;;;;10566652;28;20212;-81
2023/03/15 03:22:24;;;;;;;9.43;2.33;;;2.90;99.90;;;;;;10565434;28;20225;-81
2023/03/15 03:27:45;;;;;;;11.93;2.37;;;2.90;99.90;;;;;;10518977;28;20187;-80
2023/03/15 03:33:06;;;;;;;17.33;2.43;;;3.00;99.90;;;;;;10510127;28;20230;-80
2023/03/15 03:38:28;;;;;;;17.90;3.93;;;3.00;99.90;;;;;;10530888;28;20258;-80
2023/03/15 03:43:52;;;;;;;13.97;2.67;;;3.00;99.90;;;;;;10565929;28;20255;-79
2023/03/15 03:49:14;;;;;;;10.63;2.47;;;3.00;99.90;;;;;;10550991;28;20195;-80
2023/03/15 03:54:36;;;;;;;7.67;2.37;;;2.90;99.90;;;;;;10506220;28;20257;-80
2023/03/15 03:59:57;;;;;;;12.33;2.23;;;2.80;99.90;;;;;;10522959;28;20227;-80
2023/03/15 04:05:19;;;;;;;13.00;2.03;;;2.80;99.90;;;;;;10525434;28;20206;-79
2023/03/15 04:10:40;;;;;;;13.07;3.07;;;2.70;99.90;;;;;;10550287;28;20202;-80
2023/03/15 04:16:05;;;;;;;13.53;2.23;;;2.70;99.90;;;;;;10546996;28;20214;-80
2023/03/15 04:21:46;;;;;;;14.00;2.60;;;2.60;99.90;;;;;;10550796;28;20203;-80
2023/03/15 04:27:29;;;;;;;12.17;2.63;;;2.60;99.90;;;;;;10552916;28;20187;-80
2023/03/15 04:33:09;;;;;;;10.03;2.40;;;2.50;99.90;;;;;;10548991;28;20199;-80
2023/03/15 04:38:45;;;;;;;8.23;2.50;;;2.50;99.90;;;;;;10538730;28;20447;-80
2023/03/15 04:44:26;;;;;;;13.77;2.93;;;2.50;99.90;;;;;;10548667;28;20202;-80
2023/03/15 04:49:56;;;;;;;8.90;1.87;;;2.40;99.90;;;;;;10561881;28;20448;-80
2023/03/15 04:55:30;;;;;;;13.27;2.60;;;2.40;99.90;;;;;;10526969;28;20421;-80
2023/03/15 05:01:12;;;;;;;10.93;2.43;;;2.50;99.90;;;;;;10574033;28;20228;-79
2023/03/15 05:06:56;;;;;;;8.43;2.13;;;2.50;99.90;;;;;;10571065;28;20217;-79
2023/03/15 05:12:17;;;;;;;10.57;2.57;;;2.50;99.90;;;;;;10561844;28;20206;-79
2023/03/15 05:18:03;;;;;;;14.80;2.23;;;2.50;99.90;;;;;;10575784;28;20229;-79
2023/03/15 05:23:35;;;;;;;12.77;2.73;;;2.50;99.90;;;;;;10533342;28;20228;-81
2023/03/15 05:28:59;;;;;;;19.80;3.70;;;2.50;99.90;;;;;;10561863;28;20313;-78
2023/03/15 05:34:28;;;;;;;9.53;2.20;;;2.50;99.90;;;;;;10545147;28;20238;-79
2023/03/15 05:40:11;;;;;;;16.63;2.93;;;2.60;99.90;;;;;;10524759;28;20538;-79
2023/03/15 05:45:49;;;;;;;9.47;2.80;;;2.60;99.90;;;;;;10519016;28;20236;-79
2023/03/15 05:51:16;;;;;;;11.17;2.50;;;2.60;99.90;;;;;;10539161;28;20408;-79
2023/03/15 05:57:03;;;;;;;11.17;2.30;;;2.70;99.90;;;;;;10524000;28;20609;-79
2023/03/15 06:02:45;;;;;;;12.20;3.07;;;2.80;99.90;;;;;;10561457;28;20198;-78
2023/03/15 06:08:24;;;;;;;12.23;2.50;;;2.90;99.90;;;;;;10534781;28;20204;-81
2023/03/15 06:13:46;;;;;;;8.17;2.63;;;2.90;99.90;;;;;;10524719;28;20527;-78
2023/03/15 06:19:21;;;;;;;8.87;2.20;;;3.00;99.90;;;;;;10532231;28;20317;-80
2023/03/15 06:24:43;;;;;;;12.37;2.83;;;2.90;99.90;;;;;;10559375;28;20223;-80
2023/03/15 06:30:06;;;;;;;8.47;2.20;;;2.80;99.90;;;;;;10559525;28;20194;-80
2023/03/15 06:35:28;;;;;;;9.10;2.23;;;2.80;99.90;;;;;;10542753;28;20486;-80
2023/03/15 06:40:49;;;;;;;9.93;2.90;;;2.80;99.90;;;;;;10518293;28;20228;-79
2023/03/15 06:46:13;;;;;;;5.40;2.20;;;2.80;99.90;;;;;;10542084;28;20389;-80
2023/03/15 06:51:38;;;;;;;9.00;2.93;;;2.90;99.90;;;;;;10530369;28;20222;-78
2023/03/15 06:56:59;;;;;;;9.05;2.75;;;2.90;99.90;;;;;;10520314;28;20238;-80
2023/03/15 07:02:21;;;;;;;7.93;2.50;;;3.00;99.90;;;;;;10581203;28;20495;-80
2023/03/15 07:07:42;;;;;;;8.97;2.73;;;3.00;99.90;;;;;;10581448;28;20500;-80
2023/03/15 07:13:05;;;;;;;9.80;1.97;;;3.00;99.90;;;;;;10582796;28;20236;-80
2023/03/15 07:18:26;;;;;;;10.27;2.63;;;2.90;99.90;;;;;;10580240;28;20219;-80
2023/03/15 07:23:48;;;;;;;11.03;2.07;;;3.00;99.90;;;;;;10565203;28;20211;-79
2023/03/15 07:29:09;;;;;;;13.03;3.23;;;3.10;99.90;;;;;;10565366;28;20198;-80
2023/03/15 07:34:30;;;;;;;13.33;3.10;;;3.10;99.90;;;;;;10556613;28;20290;-80
2023/03/15 07:39:51;;;;;;;8.73;2.93;;;3.20;99.90;;;;;;10558864;28;20220;-80
2023/03/15 07:45:12;;;;;;;9.97;3.20;;;3.20;99.90;;;;;;10562102;28;20209;-80
2023/03/15 07:50:33;;;;;;;10.40;3.33;;;3.20;99.90;;;;;;10539821;28;20211;-80
2023/03/15 07:55:55;;;;;;;11.83;2.60;;;3.10;99.90;;;;;;10529555;28;20226;-81
2023/03/15 08:01:16;;;;;;;13.97;2.50;;;3.20;99.90;;;;;;10527709;28;20307;-80
2023/03/15 08:06:37;;;;;;;10.03;2.50;;;3.20;99.90;;;;;;10556188;28;20204;-81
2023/03/15 08:11:58;;;;;;;10.00;2.17;;;3.20;99.90;;;;;;10563563;28;20187;-80
2023/03/15 08:17:58;;;;;;;7.10;2.10;;;3.60;99.90;;;;;;10563346;28;20198;-80
2023/03/15 08:23:20;;;;;;;7.87;2.07;;;4.70;99.90;;;;;;10520878;28;20549;-80
2023/03/15 08:28:42;;;;;;;8.67;3.27;;;4.90;99.90;;;;;;10444446;28;20241;-79
2023/03/15 08:34:03;;;;;;;6.63;2.10;;;4.70;99.90;;;;;;10485875;28;20413;-79
2023/03/15 08:39:24;;;;;;;8.30;2.67;;;4.70;99.90;;;;;;10418419;28;20239;-78
2023/03/15 08:44:45;;;;;;;12.23;2.90;;;4.70;99.90;;;;;;10461550;28;20497;-78
2023/03/15 08:50:10;;;;;;;9.77;2.47;;;5.20;99.90;;;;;;10489471;28;20256;-79
2023/03/15 08:55:31;;;;;;;9.33;3.23;;;5.40;99.90;;;;;;10445167;28;20318;-79
2023/03/15 09:00:52;;;;;;;7.27;1.77;;;6.50;99.90;;;;;;10458383;28;20545;-78
2023/03/15 09:06:14;;;;;;;7.07;2.20;;;6.50;99.90;;;;;;10483317;28;20204;-82
2023/03/15 09:11:35;;;;;;;7.93;2.90;;;6.60;99.90;;;;;;10514693;28;20209;-81
2023/03/15 09:16:56;;;;;;;8.90;2.43;;;6.60;99.90;;;;;;10458513;28;20501;-89
2023/03/15 09:22:18;;;;;;;15.83;4.40;;;5.90;99.90;;;;;;10473709;28;20202;-87
2023/03/15 09:27:55;;;;;;;8.97;2.60;;;6.60;97.40;;;;;;10470644;28;20208;-81
2023/03/15 09:33:16;;;;;;;12.87;2.47;;;7.50;93.30;;;;;;10458032;28;20249;-80
2023/03/15 09:38:37;;;;;;;9.07;2.47;;;7.80;78.70;;;;;;10453230;28;20249;-88
2023/03/15 09:44:19;;;;;;;7.60;2.20;;;7.50;82.60;;;;;;10427939;28;20748;-79
2023/03/15 09:50:04;;;;;;;4.33;1.53;;;9.00;57.70;;;;;;10441939;28;20204;-78
2023/03/15 09:55:27;;;;;;;7.77;3.03;;;10.00;42.40;;;;;;10446590;28;20222;-80
2023/03/15 10:01:11;;;;;;;6.47;1.80;;;9.30;39.70;;;;;;10458071;28;20528;-79
2023/03/15 10:06:33;;;;;;;14.50;3.03;;;9.40;99.90;;;;;;10456034;28;20205;-86
2023/03/15 10:12:05;;;;;;;10.50;3.73;;;9.80;99.90;;;;;;10438973;28;20211;-81
2023/03/15 10:18:05;;;;;;;11.30;3.30;;;8.80;99.90;;;;;;10466194;28;20356;-78
2023/03/15 10:23:50;;;;;;;9.50;2.70;;;7.80;99.90;;;;;;10467414;28;20550;-83
2023/03/15 10:29:15;;;;;;;9.43;3.10;;;7.10;1.00;;;;;;10465901;28;20209;-87
2023/03/15 10:34:36;;;;;;;18.57;7.60;;;6.70;1.00;;;;;;10479387;28;20245;-79
2023/03/15 10:39:58;;;;;;;18.20;7.17;;;6.30;1.00;;;;;;10509066;28;20245;-79
2023/03/15 10:45:24;;;;;;;11.37;6.23;;;6.00;1.00;;;;;;10504202;28;20267;-79
2023/03/15 10:50:49;;;;;;;13.70;3.50;;;5.80;1.00;;;;;;10512210;28;20191;-79
2023/03/15 10:56:21;;;;;;;17.30;4.37;;;5.70;1.00;;;;;;10473947;28;20245;-80
2023/03/15 11:01:47;;;;;;;14.57;3.77;;;5.40;1.00;;;;;;10464113;28;20252;-81
2023/03/15 11:07:09;;;;;;;9.17;2.70;;;6.00;1.00;;;;;;10488026;28;20217;-80
2023/03/15 11:12:32;;;;;;;11.00;2.13;;;8.60;1.00;;;;;;10469398;28;20227;-80
2023/03/15 11:17:56;;;;;;;9.33;2.67;;;10.10;1.00;;;;;;10494069;28;20217;-84
2023/03/15 11:23:22;;;;;;;12.87;2.97;;;9.70;1.00;;;;;;10449695;28;20235;-80
2023/03/15 11:29:03;;;;;;;8.37;2.67;;;8.80;1.00;;;;;;10483423;28;20193;-80
2023/03/15 11:34:40;;;;;;;10.37;2.80;;;7.60;99.90;;;;;;10477951;28;20459;-85
2023/03/15 11:40:15;;;;;;;22.53;2.53;;;7.20;99.90;;;;;;10476782;28;20228;-80
2023/03/15 11:45:57;;;;;;;9.23;2.33;;;6.90;99.90;;;;;;10476831;28;20206;-79
2023/03/15 11:51:36;;;;;;;10.13;2.10;;;8.40;1.00;;;;;;10461612;28;20214;-78
2023/03/15 11:57:01;;;;;;;8.33;2.37;;;10.30;99.90;;;;;;10474228;28;20245;-88
2023/03/15 12:02:26;;;;;;;6.33;2.03;;;10.30;99.90;;;;;;10448859;28;20235;-80
2023/03/15 12:08:17;;;;;;;8.23;1.70;;;8.90;1.00;;;;;;10476163;28;20497;-84
2023/03/15 12:13:51;;;;;;;7.20;1.90;;;7.70;1.00;;;;;;10478488;28;20431;-86
2023/03/15 12:19:18;;;;;;;5.63;1.37;;;7.00;99.90;;;;;;10461374;28;20305;-79
2023/03/15 12:24:43;;;;;;;15.03;4.67;;;7.50;1.00;;;;;;10474651;28;20262;-79
2023/03/15 12:30:21;;;;;;;7.27;1.70;;;9.10;99.90;;;;;;10448266;28;20265;-78
2023/03/15 12:35:43;;;;;;;3.37;1.37;;;9.50;1.00;;;;;;10471542;28;20200;-79
2023/03/15 12:41:07;;;;;;;12.97;2.13;;;8.70;1.00;;;;;;10469884;28;20240;-77
2023/03/15 12:46:38;;;;;;;5.00;1.87;;;9.40;1.00;;;;;;10448234;28;20220;-79
2023/03/15 12:52:12;;;;;;;8.23;2.20;;;10.60;1.00;;;;;;10472689;28;20492;-78
2023/03/15 12:57:43;;;;;;;11.07;2.07;;;11.30;1.00;;;;;;10473615;28;20250;-79
2023/03/15 13:03:17;;;;;;;8.43;2.03;;;11.20;1.00;;;;;;10431239;28;20338;-79
2023/03/15 13:08:47;;;;;;;9.40;2.40;;;10.10;99.90;;;;;;10459519;28;20312;-78
2023/03/15 13:14:31;;;;;;;9.70;1.80;;;9.10;99.90;;;;;;10507189;28;20200;-78
2023/03/15 13:20:12;;;;;;;8.63;2.43;;;8.90;1.00;;;;;;10477735;28;20223;-80
2023/03/15 13:25:44;;;;;;;6.67;1.87;;;9.60;1.00;;;;;;10477234;28;20222;-78
2023/03/15 13:31:19;;;;;;;7.07;1.97;;;10.50;1.00;;;;;;10503260;28;20507;-79
2023/03/15 13:36:56;;;;;;;18.70;2.47;;;10.40;1.00;;;;;;10495441;28;20197;-77
2023/03/15 13:42:22;;;;;;;7.50;1.47;;;10.20;1.00;;;;;;10485726;28;20310;-79
2023/03/15 13:47:45;;;;;;;2.23;1.27;;;9.80;1.00;;;;;;10468536;28;20250;-76
2023/03/15 13:53:06;;;;;;;9.67;2.40;;;9.30;1.00;;;;;;10496616;28;20344;-80
2023/03/15 13:58:28;;;;;;;11.93;2.87;;;9.10;1.00;;;;;;10494878;28;20348;-79
2023/03/15 14:04:07;;;;;;;4.37;1.53;;;9.10;1.00;;;;;;10487892;28;20256;-80
2023/03/15 14:09:29;;;;;;;3.57;1.50;;;9.10;1.00;;;;;;10505389;28;20419;-85
2023/03/15 14:14:52;;;;;;;6.03;2.83;;;9.00;1.00;;;;;;10461785;28;20212;-80
2023/03/15 14:20:15;;;;;;;18.87;5.10;;;8.90;1.00;;;;;;10495363;28;20566;-79
2023/03/15 14:25:37;;;;;;;7.53;3.23;;;8.30;1.00;;;;;;10502592;28;20231;-81
2023/03/15 14:30:59;;;;;;;8.97;2.70;;;7.60;1.00;;;;;;10478999;28;20275;-80
2023/03/15 14:36:30;;;;;;;10.43;2.67;;;7.20;99.90;;;;;;10480777;28;20214;-79
2023/03/15 14:41:51;;;;;;;17.37;6.13;;;7.10;99.90;;;;;;10477804;28;20527;-77
2023/03/15 14:47:15;;;;;;;8.37;2.10;;;7.10;1.00;;;;;;10472194;28;20201;-77
2023/03/15 14:52:36;;;;;;;13.03;3.00;;;7.00;99.90;;;;;;10502267;28;20203;-80
2023/03/15 14:57:58;;;;;;;3.30;1.47;;;7.00;99.90;;;;;;10460375;28;20239;-77
2023/03/15 15:03:40;;;;;;;4.80;1.77;;;7.00;99.90;;;;;;10475423;28;20294;-79
2023/03/15 15:09:04;;;;;;;8.47;1.53;;;7.10;1.00;;;;;;10497884;28;20203;-77
2023/03/15 15:14:25;;;;;;;9.10;3.03;;;7.60;1.00;;;;;;10459065;28;20227;-78
2023/03/15 15:19:47;;;;;;;7.77;1.60;;;7.90;99.90;;;;;;10473692;28;20422;-78
2023/03/15 15:25:13;;;;;;;10.73;2.53;;;7.40;1.00;;;;;;10493140;28;20272;-76
2023/03/15 15:30:34;;;;;;;13.60;6.40;;;7.20;1.00;;;;;;10465394;28;20421;-77
2023/03/15 15:35:56;;;;;;;11.27;5.87;;;6.80;99.90;;;;;;10477261;28;20207;-78
2023/03/15 15:41:29;;;;;;;11.43;3.27;;;6.60;99.90;;;;;;10463253;28;20374;-79
2023/03/15 15:46:50;;;;;;;9.40;2.77;;;6.60;1.00;;;;;;10441668;28;20283;-78
2023/03/15 15:52:12;;;;;;;7.20;2.77;;;6.50;1.00;;;;;;10439091;28;20263;-76
2023/03/15 15:57:33;;;;;;;9.20;4.60;;;6.30;1.00;;;;;;10466713;28;20254;-79
2023/03/15 16:02:56;;;;;;;9.43;3.00;;;6.10;99.90;;;;;;10476441;28;20452;-78
2023/03/15 16:08:23;;;;;;;6.33;2.83;;;6.00;22.30;;;;;;10463727;28;20449;-80
2023/03/15 16:13:45;;;;;;;10.03;3.50;;;6.00;1.00;;;;;;10522438;28;20207;-79
2023/03/15 16:19:07;;;;;;;14.20;6.17;;;5.90;1.00;;;;;;10477866;28;20287;-79
2023/03/15 16:24:32;;;;;;;9.03;3.20;;;5.80;45.90;;;;;;10479255;28;20194;-78
2023/03/15 16:29:55;;;;;;;9.60;3.17;;;5.70;1.00;;;;;;10472718;28;20206;-80
2023/03/15 16:35:17;;;;;;;7.80;2.30;;;5.50;1.00;;;;;;10454773;28;20218;-78
2023/03/15 16:40:40;;;;;;;9.00;2.33;;;5.50;15.10;;;;;;10480141;28;20294;-80
2023/03/15 16:46:01;;;;;;;7.20;2.90;;;5.40;63.20;;;;;;10473548;28;20210;-78
2023/03/15 16:51:22;;;;;;;5.70;2.80;;;5.40;99.90;;;;;;10439344;28;20428;-78
2023/03/15 16:56:44;;;;;;;7.13;2.23;;;5.30;99.90;;;;;;10454685;28;20239;-78
2023/03/15 17:02:15;;;;;;;4.67;2.03;;;5.30;99.90;;;;;;10461984;28;20224;-78
2023/03/15 17:07:38;;;;;;;11.07;5.33;;;5.20;99.90;;;;;;10479062;28;20195;-78
2023/03/15 17:13:26;;;;;;;13.43;5.50;;;5.10;99.90;;;;;;10478752;28;20274;-78
2023/03/15 17:18:47;;;;;;;17.57;7.23;;;5.00;99.90;;;;;;10493613;28;20214;-78
2023/03/15 17:24:10;;;;;;;9.73;4.17;;;5.00;1.00;;;;;;10535979;28;20213;-78
2023/03/15 17:29:30;;;;;;;6.90;3.07;;;4.90;1.00;;;;;;10505168;28;20195;-78
2023/03/15 17:34:57;;;;;;;9.00;3.20;;;4.80;1.00;;;;;;10478922;28;20202;-78
2023/03/15 17:40:24;;;;;;;11.37;5.20;;;4.80;1.00;;;;;;10439230;28;20427;-78
2023/03/15 17:45:45;;;;;;;10.83;4.27;;;4.70;1.00;;;;;;10435711;28;20211;-80
2023/03/15 17:51:15;;;;;;;10.67;5.67;;;4.60;1.00;;;;;;10476574;28;20214;-78
2023/03/15 17:56:36;;;;;;;8.23;3.83;;;4.50;1.00;;;;;;10478380;28;20445;-78
2023/03/15 18:01:57;;;;;;;5.60;2.90;;;4.50;1.00;;;;;;10477235;28;20250;-79
2023/03/15 18:07:18;;;;;;;10.57;4.90;;;4.50;1.00;;;;;;10488786;28;20229;-78
2023/03/15 18:12:42;;;;;;;39.93;21.47;;;4.30;1.00;;;;;;10463249;28;20206;-79
2023/03/15 18:18:03;;;;;;;86.60;32.70;;;4.20;1.00;;;;;;10476815;28;20236;-79
2023/03/15 18:23:26;;;;;;;127.57;53.93;;;4.00;1.00;;;;;;10486733;28;20277;-79
2023/03/15 18:28:58;;;;;;;126.00;54.43;;;4.00;1.70;;;;;;10504989;28;20281;-79
2023/03/15 18:34:21;;;;;;;221.97;92.87;;;3.80;97.60;;;;;;10498115;28;20191;-79
2023/03/15 18:39:43;;;;;;;195.77;84.27;;;3.60;99.90;;;;;;10495573;28;20532;-80
2023/03/15 18:45:05;;;;;;;133.63;56.57;;;3.60;99.90;;;;;;10484959;28;20202;-79
2023/03/15 18:50:37;;;;;;;98.27;42.20;;;3.50;99.90;;;;;;10526191;28;20202;-78
2023/03/15 18:55:58;;;;;;;83.77;36.40;;;3.50;99.90;;;;;;10487996;28;20288;-80
2023/03/15 19:01:23;;;;;;;80.47;35.43;;;3.30;1.00;;;;;;10460523;28;20238;-80
2023/03/15 19:06:44;;;;;;;92.23;34.67;;;3.20;1.00;;;;;;10460521;28;20237;-78
2023/03/15 19:12:06;;;;;;;84.70;32.57;;;3.10;99.90;;;;;;10460841;28;20213;-79
2023/03/15 19:17:27;;;;;;;98.20;37.73;;;3.00;99.90;;;;;;10474590;28;20203;-78
2023/03/15 19:22:50;;;;;;;123.17;40.93;;;3.00;99.90;;;;;;10515381;28;20225;-77
2023/03/15 19:28:11;;;;;;;89.80;34.13;;;3.00;99.90;;;;;;10483009;28;20282;-78
2023/03/15 19:33:33;;;;;;;61.77;26.90;;;2.90;1.00;;;;;;10524631;28;20197;-79
2023/03/15 19:38:54;;;;;;;52.40;22.33;;;2.90;99.90;;;;;;10478061;28;20234;-78
2023/03/15 19:44:16;;;;;;;79.07;27.97;;;2.90;1.00;;;;;;10489810;28;20201;-78
2023/03/15 19:49:37;;;;;;;67.87;24.77;;;2.80;1.00;;;;;;10478900;28;20496;-78
2023/03/15 19:54:59;;;;;;;67.57;22.27;;;2.80;1.00;;;;;;10467244;28;20213;-79
2023/03/15 20:00:21;;;;;;;85.60;30.47;;;2.70;1.00;;;;;;10480981;28;20558;-79
2023/03/15 20:05:43;;;;;;;71.27;28.47;;;2.70;99.90;;;;;;10464865;28;20212;-79
2023/03/15 20:11:08;;;;;;;76.93;23.73;;;2.60;99.90;;;;;;10481165;28;20194;-80
2023/03/15 20:16:29;;;;;;;44.93;17.20;;;2.60;1.00;;;;;;10466472;28;20485;-79
2023/03/15 20:21:50;;;;;;;36.00;11.83;;;2.60;99.90;;;;;;10523064;28;20270;-79
2023/03/15 20:27:12;;;;;;;32.83;14.43;;;;;;;;;;10522324;28;20379;-80
2023/03/15 20:32:33;;;;;;;27.30;11.03;;;2.50;48.10;;;;;;10513794;28;20270;-79
2023/03/15 20:37:55;;;;;;;16.53;7.27;;;2.40;1.00;;;;;;10477351;28;20208;-79
2023/03/15 20:43:16;;;;;;;15.13;4.37;;;2.30;1.00;;;;;;10496386;28;20225;-79
2023/03/15 20:48:37;;;;;;;15.17;6.00;;;2.40;1.00;;;;;;10478541;28;20212;-79
2023/03/15 20:53:58;;;;;;;11.37;4.83;;;2.30;1.00;;;;;;10479564;28;20316;-78
2023/03/15 20:59:21;;;;;;;14.73;6.20;;;2.30;99.90;;;;;;10478054;28;20232;-76
2023/03/15 21:04:43;;;;;;;20.53;9.10;;;2.20;99.90;;;;;;10492587;28;20217;-80
2023/03/15 21:10:05;;;;;;;31.40;12.67;;;2.30;99.90;;;;;;10469387;28;20525;-78
2023/03/15 21:15:28;;;;;;;24.37;9.63;;;2.20;99.90;;;;;;10478589;28;20211;-77
2023/03/15 21:21:01;;;;;;;19.07;7.10;;;2.10;99.90;;;;;;10478626;28;20217;-77
2023/03/15 21:26:22;;;;;;;16.57;6.83;;;2.10;99.90;;;;;;10424876;28;20214;-77
2023/03/15 21:31:43;;;;;;;11.13;5.00;;;2.10;1.00;;;;;;10437852;28;20195;-77
2023/03/15 21:37:04;;;;;;;11.43;5.37;;;2.10;1.00;;;;;;10464631;28;20200;-77
2023/03/15 21:42:26;;;;;;;11.30;5.13;;;2.10;1.00;;;;;;10433525;28;20257;-77
2023/03/15 21:47:47;;;;;;;17.13;7.13;;;2.00;1.00;;;;;;10436409;28;20422;-78
2023/03/15 21:53:08;;;;;;;16.90;6.03;;;2.00;1.00;;;;;;10429347;28;20213;-79
2023/03/15 21:58:30;;;;;;;20.57;8.00;;;1.90;1.00;;;;;;10464137;28;20252;-77
2023/03/15 22:03:53;;;;;;;20.23;9.13;;;1.90;1.00;;;;;;10463070;28;20421;-78
2023/03/15 22:09:14;;;;;;;23.63;9.33;;;1.90;1.00;;;;;;10446184;28;20250;-77
2023/03/15 22:14:36;;;;;;;28.27;11.70;;;1.90;40.90;;;;;;10449046;28;20208;-78
2023/03/15 22:19:57;;;;;;;29.73;12.70;;;1.80;99.90;;;;;;10477785;28;20221;-79
2023/03/15 22:25:18;;;;;;;31.37;11.97;;;1.70;99.90;;;;;;10492777;28;20391;-79
2023/03/15 22:30:40;;;;;;;22.77;9.23;;;1.70;99.90;;;;;;10518559;28;20193;-77
2023/03/15 22:36:02;;;;;;;17.90;6.83;;;1.70;99.90;;;;;;10485083;28;20208;-77
2023/03/15 22:41:23;;;;;;;14.83;5.73;;;1.70;99.90;;;;;;10437411;28;20252;-78
2023/03/15 22:46:44;;;;;;;14.57;5.97;;;1.80;99.90;;;;;;10477688;28;20188;-78
2023/03/15 22:52:05;;;;;;;8.63;4.90;;;1.90;99.90;;;;;;10479062;28;20378;-79
2023/03/15 22:57:27;;;;;;;18.47;8.00;;;1.90;99.90;;;;;;10475151;28;20542;-78
2023/03/15 23:02:48;;;;;;;16.73;8.27;;;2.00;99.90;;;;;;10470989;28;20304;-79
2023/03/15 23:08:10;;;;;;;16.93;6.53;;;2.00;99.90;;;;;;10492640;28;20196;-79
2023/03/15 23:13:31;;;;;;;13.53;6.10;;;1.90;99.90;;;;;;10491133;28;20277;-79
2023/03/15 23:18:52;;;;;;;15.80;6.73;;;2.00;99.90;;;;;;10494876;28;20204;-79
2023/03/15 23:24:16;;;;;;;13.50;7.43;;;2.00;99.90;;;;;;10525254;28;20196;-79
2023/03/15 23:29:37;;;;;;;18.50;7.10;;;2.00;99.90;;;;;;10496199;28;20428;-78
2023/03/15 23:35:26;;;;;;;17.27;7.50;;;1.90;99.90;;;;;;10484974;28;20441;-79
2023/03/15 23:40:54;;;;;;;15.13;7.60;;;1.90;99.90;;;;;;10482020;28;20254;-79
2023/03/15 23:46:15;;;;;;;16.13;7.53;;;2.00;99.90;;;;;;10468351;28;20208;-79
2023/03/15 23:51:37;;;;;;;13.57;7.37;;;2.00;99.90;;;;;;10483311;28;20199;-79
2023/03/15 23:56:58;;;;;;;10.47;6.00;;;1.90;99.90;;;;;;10480948;28;20311;-78
